aviador You're here:

OIII Decoded Metar

TEHERAN in IRAN
Report Time2018-02-18 21:30:00
UTC Time2018-02-18 21:58:15
Flight Rules vfr VFR
Wind310° at 04 kt
W.Decomp.*RWY 29: 3.8 kt HW 1.2 kt RCW
W.Rank310° ranks 12
Current wind is below 310° avg. (5.3)
Visibility9999 m
Phenomena:N/A
Clouds:Few 035 Hf
Expected CloudBase > 1,600 ft AGL from Temp-Dew spread
CeilingNone
Temp08°C (ISA +1)
Dew Point04°C (76% RH)
AAT5.2°C
QNH1010 hPa
Density Alt4,222 ft
Elevation3,907 ft
Report Wrong Elevation
Raw Report
METAR OIII 182130Z 31004KT 9999 FEW035 08/04 Q1010 A2983=

Extra information for OIII:More info

Metar Taf Metar & Taf Last 4 Metars F.Rules Stats Wind Profile Meteogram Temp Stats Airport Information Weather charts Add Link Nearby VenuesMetar ALERT Operation Metar Decoded Social comments